createdAt,value
2022-09-07T00:00:19.350Z,16.10
2022-09-07T00:05:21.424Z,16.10
2022-09-07T00:10:23.943Z,16.10
2022-09-07T00:15:25.826Z,16.00
2022-09-07T00:20:27.706Z,16.00
2022-09-07T00:25:31.867Z,15.90
2022-09-07T00:30:34.742Z,15.80
2022-09-07T00:35:41.027Z,15.70
2022-09-07T00:40:43.081Z,15.70
2022-09-07T00:45:44.978Z,15.70
2022-09-07T00:50:58.857Z,15.80
2022-09-07T00:56:01.544Z,15.80
2022-09-07T01:01:03.861Z,15.80
2022-09-07T01:06:19.666Z,15.70
2022-09-07T01:11:22.719Z,15.70
2022-09-07T01:16:31.467Z,15.60
2022-09-07T01:21:52.425Z,15.70
2022-09-07T01:27:21.478Z,15.60
2022-09-07T01:32:23.294Z,15.50
2022-09-07T01:37:28.567Z,15.40
2022-09-07T01:42:41.390Z,15.40
2022-09-07T01:47:50.154Z,15.40
2022-09-07T01:53:01.092Z,15.40
2022-09-07T01:58:17.523Z,15.30
2022-09-07T02:03:34.571Z,15.20
2022-09-07T02:09:01.038Z,15.20
2022-09-07T02:14:14.740Z,15.20
2022-09-07T02:19:19.225Z,15.10
2022-09-07T02:24:42.047Z,15.00
2022-09-07T02:29:43.947Z,15.10
2022-09-07T02:34:46.355Z,15.10
2022-09-07T02:39:49.385Z,15.10
2022-09-07T02:44:51.442Z,15.00
2022-09-07T02:50:20.699Z,15.00
2022-09-07T02:55:37.925Z,15.00
2022-09-07T03:00:45.713Z,14.90
2022-09-07T03:06:00.935Z,14.90
2022-09-07T03:11:05.057Z,14.90
2022-09-07T03:16:07.006Z,14.90
2022-09-07T03:21:09.263Z,14.90
2022-09-07T03:26:25.401Z,14.90
2022-09-07T03:31:27.409Z,14.90
2022-09-07T03:36:29.935Z,14.80
2022-09-07T03:41:31.817Z,14.70
2022-09-07T03:46:34.328Z,14.60
2022-09-07T03:51:36.306Z,14.60
2022-09-07T03:56:38.784Z,14.60
2022-09-07T04:01:40.743Z,14.70
2022-09-07T04:06:42.712Z,14.70
2022-09-07T04:11:44.604Z,14.70
2022-09-07T04:16:46.746Z,14.70
2022-09-07T04:21:48.651Z,14.60
2022-09-07T04:26:50.564Z,14.60
2022-09-07T04:31:52.409Z,14.50
2022-09-07T04:36:54.272Z,14.60
2022-09-07T04:41:56.795Z,14.60
2022-09-07T04:46:58.701Z,14.60
2022-09-07T04:52:00.543Z,14.60
2022-09-07T04:57:02.547Z,14.60
2022-09-07T05:02:04.754Z,14.60
2022-09-07T05:07:06.814Z,14.60
2022-09-07T05:12:08.843Z,14.70
2022-09-07T05:17:10.733Z,14.70
2022-09-07T05:22:12.623Z,14.90
2022-09-07T05:27:14.490Z,14.90
2022-09-07T05:32:16.330Z,15.00
2022-09-07T05:37:18.203Z,15.20
2022-09-07T05:42:20.071Z,15.40
2022-09-07T05:47:21.983Z,15.80
2022-09-07T05:52:23.842Z,16.30
2022-09-07T05:57:26.005Z,16.60
2022-09-07T06:02:28.172Z,17.20
2022-09-07T06:07:30.387Z,17.60
2022-09-07T06:12:32.269Z,18.10
2022-09-07T06:17:34.135Z,18.50
2022-09-07T06:22:36.981Z,18.80
2022-09-07T06:27:38.837Z,19.30
2022-09-07T06:37:43.989Z,20.10
2022-09-07T06:42:45.852Z,20.40
2022-09-07T06:47:47.705Z,20.70
2022-09-07T06:58:11.474Z,21.50
2022-09-07T07:03:13.596Z,21.70
2022-09-07T07:08:15.640Z,21.80
2022-09-07T07:18:21.125Z,22.60
2022-09-07T07:23:23.399Z,23.00
2022-09-07T07:33:50.694Z,23.10
2022-09-07T07:39:02.393Z,23.20
2022-09-07T07:44:04.795Z,23.30
2022-09-07T07:49:06.625Z,23.50
2022-09-07T07:54:09.142Z,23.50
2022-09-07T07:59:15.121Z,23.80
2022-09-07T08:04:17.698Z,23.40
2022-09-07T08:09:20.115Z,23.30
2022-09-07T08:14:22.053Z,23.50
2022-09-07T08:19:23.861Z,23.80
2022-09-07T08:24:25.775Z,24.30
2022-09-07T08:29:31.311Z,24.40
2022-09-07T08:34:36.935Z,24.70
2022-09-07T08:39:38.816Z,24.60
2022-09-07T08:44:48.780Z,25.00
2022-09-07T08:50:10.130Z,25.50
2022-09-07T08:55:18.761Z,25.90
2022-09-07T09:00:20.735Z,26.10
2022-09-07T09:05:43.857Z,26.10
2022-09-07T09:11:01.560Z,26.10
2022-09-07T09:16:14.763Z,26.30
2022-09-07T09:21:18.747Z,26.50
2022-09-07T09:26:25.377Z,26.80
2022-09-07T09:31:34.428Z,27.30
2022-09-07T09:36:50.164Z,27.20
2022-09-07T09:41:52.315Z,27.20
2022-09-07T09:52:42.217Z,27.40
2022-09-07T10:08:37.118Z,27.90
2022-09-07T10:13:56.498Z,27.60
2022-09-07T10:18:58.975Z,27.60
2022-09-07T10:24:14.681Z,27.50
2022-09-07T10:29:30.027Z,27.70
2022-09-07T10:34:56.753Z,28.00
2022-09-07T10:40:12.370Z,28.60
2022-09-07T10:45:26.944Z,29.10
2022-09-07T10:50:51.977Z,29.60
2022-09-07T10:56:10.647Z,29.80
2022-09-07T11:01:19.369Z,29.80
2022-09-07T11:06:36.516Z,29.80
2022-09-07T11:17:13.318Z,30.00
2022-09-07T11:22:39.192Z,30.10
2022-09-07T11:27:54.897Z,30.10
2022-09-07T11:33:03.222Z,30.10
2022-09-07T11:38:25.989Z,30.10
2022-09-07T11:44:00.309Z,30.60
2022-09-07T11:49:05.263Z,30.50
2022-09-07T11:54:29.617Z,30.60
2022-09-07T11:59:50.782Z,30.60
2022-09-07T12:05:30.063Z,30.50
2022-09-07T12:10:53.417Z,30.20
2022-09-07T12:16:01.287Z,30.10
2022-09-07T12:21:03.458Z,29.90
2022-09-07T12:26:35.468Z,29.90
2022-09-07T12:31:59.372Z,30.20
2022-09-07T12:37:24.169Z,30.00
2022-09-07T12:42:37.121Z,30.20
2022-09-07T12:47:40.485Z,30.20
2022-09-07T12:52:53.722Z,30.20
2022-09-07T12:58:01.658Z,29.90
2022-09-07T13:08:52.618Z,30.60
2022-09-07T13:14:14.721Z,30.70
2022-09-07T13:19:46.023Z,30.50
2022-09-07T13:24:52.668Z,30.40
2022-09-07T13:29:57.611Z,30.20
2022-09-07T13:35:02.759Z,30.20
2022-09-07T13:40:09.592Z,30.20
2022-09-07T13:45:47.005Z,29.90
2022-09-07T13:51:13.789Z,29.70
2022-09-07T13:56:30.663Z,29.60
2022-09-07T14:01:32.943Z,29.60
2022-09-07T14:06:36.851Z,29.70
2022-09-07T14:11:47.802Z,29.70
2022-09-07T14:16:52.436Z,29.60
2022-09-07T14:22:02.102Z,29.40
2022-09-07T14:27:07.204Z,29.30
2022-09-07T14:32:13.570Z,29.50
2022-09-07T14:37:17.309Z,29.50
2022-09-07T14:42:23.843Z,29.50
2022-09-07T14:47:36.636Z,29.20
2022-09-07T14:53:33.390Z,28.90
2022-09-07T14:58:15.434Z,28.70
2022-09-07T15:03:33.047Z,28.60
2022-09-07T15:08:48.679Z,28.50
2022-09-07T15:13:58.886Z,28.30
2022-09-07T15:19:16.402Z,28.20
2022-09-07T15:24:18.626Z,28.10
2022-09-07T15:29:21.200Z,28.00
2022-09-07T15:34:24.657Z,27.90
2022-09-07T15:39:30.595Z,27.70
2022-09-07T15:44:33.162Z,27.60
2022-09-07T15:49:35.335Z,27.50
2022-09-07T15:54:39.875Z,27.30
2022-09-07T15:59:42.361Z,27.20
2022-09-07T16:04:44.574Z,27.00
2022-09-07T16:09:47.141Z,26.90
2022-09-07T16:14:56.343Z,26.80
2022-09-07T16:20:09.285Z,26.60
2022-09-07T16:25:11.603Z,26.30
2022-09-07T16:30:14.291Z,26.10
2022-09-07T16:35:17.638Z,25.90
2022-09-07T16:40:20.531Z,25.90
2022-09-07T16:51:01.567Z,26.00
2022-09-07T16:56:09.737Z,25.90
2022-09-07T17:01:14.995Z,25.90
2022-09-07T17:06:19.104Z,25.80
2022-09-07T17:11:23.725Z,25.70
2022-09-07T17:16:31.268Z,25.50
2022-09-07T17:21:35.820Z,25.30
2022-09-07T17:26:38.123Z,25.20
2022-09-07T17:37:03.001Z,24.80
2022-09-07T17:42:05.608Z,24.60
2022-09-07T17:47:07.931Z,24.50
2022-09-07T17:52:10.486Z,24.20
2022-09-07T17:57:12.582Z,24.10
2022-09-07T18:02:17.389Z,23.90
2022-09-07T18:07:19.570Z,23.60
2022-09-07T18:12:22.648Z,23.50
2022-09-07T18:17:24.806Z,23.30
2022-09-07T18:22:26.884Z,23.20
2022-09-07T18:27:31.405Z,23.00
2022-09-07T18:32:45.120Z,22.90
2022-09-07T18:37:47.576Z,22.80
2022-09-07T18:42:49.657Z,22.70
2022-09-07T18:47:51.967Z,22.50
2022-09-07T18:52:57.382Z,22.40
2022-09-07T18:58:03.540Z,22.20
2022-09-07T19:03:05.372Z,22.00
2022-09-07T19:08:08.510Z,21.90
2022-09-07T19:13:10.464Z,21.90
2022-09-07T19:18:12.440Z,21.80
2022-09-07T19:23:14.725Z,21.70
2022-09-07T19:28:18.606Z,21.50
2022-09-07T19:33:21.896Z,21.40
2022-09-07T19:38:24.302Z,21.30
2022-09-07T19:43:27.448Z,21.30
2022-09-07T19:48:31.738Z,21.10
2022-09-07T19:53:35.534Z,21.00
2022-09-07T19:58:39.750Z,20.90
2022-09-07T20:03:42.302Z,20.80
2022-09-07T20:08:45.238Z,20.80
2022-09-07T20:13:49.349Z,20.60
2022-09-07T20:18:51.393Z,20.50
2022-09-07T20:23:53.382Z,20.40
2022-09-07T20:29:16.409Z,20.20
2022-09-07T20:34:18.109Z,20.20
2022-09-07T20:39:20.724Z,20.20
2022-09-07T20:44:22.754Z,20.10
2022-09-07T20:49:24.614Z,20.00
2022-09-07T20:54:26.444Z,19.90
2022-09-07T20:59:28.283Z,19.80
2022-09-07T21:04:30.188Z,19.70
2022-09-07T21:09:32.077Z,19.70
2022-09-07T21:14:33.895Z,19.60
2022-09-07T21:19:36.890Z,19.60
2022-09-07T21:24:38.915Z,19.50
2022-09-07T21:29:40.867Z,19.40
2022-09-07T21:34:42.677Z,19.40
2022-09-07T21:39:44.572Z,19.30
2022-09-07T21:44:46.478Z,19.20
2022-09-07T21:49:48.310Z,19.20
2022-09-07T21:54:50.217Z,19.10
2022-09-07T21:59:52.043Z,19.00
2022-09-07T22:04:53.898Z,19.00
2022-09-07T22:09:55.792Z,18.90
2022-09-07T22:14:57.719Z,18.90
2022-09-07T22:19:59.536Z,18.80
2022-09-07T22:25:10.349Z,18.70
2022-09-07T22:30:12.709Z,18.60
2022-09-07T22:35:15.927Z,18.60
2022-09-07T22:40:17.906Z,18.50
2022-09-07T22:45:19.752Z,18.50
2022-09-07T22:50:21.661Z,18.40
2022-09-07T22:55:23.504Z,18.30
2022-09-07T23:00:25.316Z,18.20
2022-09-07T23:05:27.167Z,18.20
2022-09-07T23:10:28.992Z,18.10
2022-09-07T23:15:31.028Z,18.10
2022-09-07T23:20:33.710Z,18.10
2022-09-07T23:25:37.317Z,18.10
2022-09-07T23:30:42.585Z,18.00
2022-09-07T23:35:58.717Z,17.90
2022-09-07T23:41:00.733Z,17.90
2022-09-07T23:46:02.782Z,17.90
2022-09-07T23:51:05.789Z,17.90
2022-09-07T23:56:07.853Z,17.80
